sensor_id;sensor_type;location;lat;lon;timestamp;P1;durP1;ratioP1;P2;durP2;ratioP2
505;SDS011;551;48.524;9.056;2023-02-01T00:01:33;4.37;;;2.97;;
505;SDS011;551;48.524;9.056;2023-02-01T00:03:59;5.17;;;3.40;;
505;SDS011;551;48.524;9.056;2023-02-01T00:06:24;5.30;;;3.37;;
505;SDS011;551;48.524;9.056;2023-02-01T00:08:53;3.23;;;2.93;;
505;SDS011;551;48.524;9.056;2023-02-01T00:11:19;4.27;;;3.60;;
505;SDS011;551;48.524;9.056;2023-02-01T00:13:45;3.43;;;3.13;;
505;SDS011;551;48.524;9.056;2023-02-01T00:16:12;4.60;;;2.73;;
505;SDS011;551;48.524;9.056;2023-02-01T00:18:45;6.57;;;3.13;;
505;SDS011;551;48.524;9.056;2023-02-01T00:21:12;5.00;;;3.37;;
505;SDS011;551;48.524;9.056;2023-02-01T00:23:39;4.70;;;3.00;;
505;SDS011;551;48.524;9.056;2023-02-01T00:26:05;5.07;;;3.30;;
505;SDS011;551;48.524;9.056;2023-02-01T00:28:32;3.93;;;3.20;;
505;SDS011;551;48.524;9.056;2023-02-01T00:31:02;7.17;;;3.07;;
505;SDS011;551;48.524;9.056;2023-02-01T00:33:29;2.97;;;2.20;;
505;SDS011;551;48.524;9.056;2023-02-01T00:35:58;4.17;;;2.93;;
505;SDS011;551;48.524;9.056;2023-02-01T00:38:26;3.50;;;2.37;;
505;SDS011;551;48.524;9.056;2023-02-01T00:40:52;2.80;;;2.40;;
505;SDS011;551;48.524;9.056;2023-02-01T00:43:17;3.90;;;2.70;;
505;SDS011;551;48.524;9.056;2023-02-01T00:45:44;3.63;;;2.40;;
505;SDS011;551;48.524;9.056;2023-02-01T00:48:10;3.07;;;2.57;;
505;SDS011;551;48.524;9.056;2023-02-01T00:50:40;3.00;;;2.20;;
505;SDS011;551;48.524;9.056;2023-02-01T00:53:07;4.30;;;2.67;;
505;SDS011;551;48.524;9.056;2023-02-01T00:55:33;4.30;;;2.53;;
505;SDS011;551;48.524;9.056;2023-02-01T00:57:59;2.53;;;2.20;;
505;SDS011;551;48.524;9.056;2023-02-01T01:00:24;3.90;;;2.20;;
505;SDS011;551;48.524;9.056;2023-02-01T01:02:50;2.30;;;2.20;;
505;SDS011;551;48.524;9.056;2023-02-01T01:05:15;3.30;;;2.57;;
505;SDS011;551;48.524;9.056;2023-02-01T01:07:41;4.37;;;2.93;;
505;SDS011;551;48.524;9.056;2023-02-01T01:10:07;4.43;;;2.90;;
505;SDS011;551;48.524;9.056;2023-02-01T01:12:32;3.10;;;2.17;;
505;SDS011;551;48.524;9.056;2023-02-01T01:14:58;1.80;;;1.70;;
505;SDS011;551;48.524;9.056;2023-02-01T01:17:23;3.27;;;2.20;;
505;SDS011;551;48.524;9.056;2023-02-01T01:19:49;2.67;;;2.17;;
505;SDS011;551;48.524;9.056;2023-02-01T01:22:14;2.40;;;2.20;;
505;SDS011;551;48.524;9.056;2023-02-01T01:24:40;2.40;;;1.83;;
505;SDS011;551;48.524;9.056;2023-02-01T01:27:05;1.90;;;1.80;;
505;SDS011;551;48.524;9.056;2023-02-01T01:29:31;2.00;;;1.80;;
505;SDS011;551;48.524;9.056;2023-02-01T01:31:56;2.10;;;1.90;;
505;SDS011;551;48.524;9.056;2023-02-01T01:34:22;2.80;;;1.93;;
505;SDS011;551;48.524;9.056;2023-02-01T01:36:47;1.93;;;1.83;;
505;SDS011;551;48.524;9.056;2023-02-01T01:39:13;3.27;;;2.23;;
505;SDS011;551;48.524;9.056;2023-02-01T01:41:38;2.53;;;2.40;;
505;SDS011;551;48.524;9.056;2023-02-01T01:44:05;1.70;;;1.60;;
505;SDS011;551;48.524;9.056;2023-02-01T01:46:36;1.97;;;1.73;;
505;SDS011;551;48.524;9.056;2023-02-01T01:49:04;2.13;;;1.93;;
505;SDS011;551;48.524;9.056;2023-02-01T01:51:31;1.70;;;1.60;;
505;SDS011;551;48.524;9.056;2023-02-01T01:54:04;2.00;;;1.77;;
505;SDS011;551;48.524;9.056;2023-02-01T01:56:36;1.77;;;1.67;;
505;SDS011;551;48.524;9.056;2023-02-01T01:59:02;2.70;;;1.87;;
505;SDS011;551;48.524;9.056;2023-02-01T02:01:29;2.00;;;1.90;;
505;SDS011;551;48.524;9.056;2023-02-01T02:03:55;2.10;;;1.70;;
505;SDS011;551;48.524;9.056;2023-02-01T02:09:27;2.13;;;1.80;;
505;SDS011;551;48.524;9.056;2023-02-01T02:11:53;1.70;;;1.60;;
505;SDS011;551;48.524;9.056;2023-02-01T02:14:19;1.93;;;1.73;;
505;SDS011;551;48.524;9.056;2023-02-01T02:17:07;2.13;;;1.80;;
505;SDS011;551;48.524;9.056;2023-02-01T02:20:10;2.60;;;2.10;;
505;SDS011;551;48.524;9.056;2023-02-01T02:29:11;2.63;;;1.77;;
505;SDS011;551;48.524;9.056;2023-02-01T02:34:47;2.30;;;2.10;;
505;SDS011;551;48.524;9.056;2023-02-01T02:37:47;2.73;;;2.17;;
505;SDS011;551;48.524;9.056;2023-02-01T02:40:22;2.23;;;1.87;;
505;SDS011;551;48.524;9.056;2023-02-01T02:43:09;2.60;;;1.60;;
505;SDS011;551;48.524;9.056;2023-02-01T02:46:01;2.17;;;1.97;;
505;SDS011;551;48.524;9.056;2023-02-01T02:49:02;1.83;;;1.70;;
505;SDS011;551;48.524;9.056;2023-02-01T02:51:58;1.97;;;1.77;;
505;SDS011;551;48.524;9.056;2023-02-01T02:54:48;2.20;;;2.00;;
505;SDS011;551;48.524;9.056;2023-02-01T03:00:16;3.90;;;1.70;;
505;SDS011;551;48.524;9.056;2023-02-01T03:03:03;2.47;;;2.20;;
505;SDS011;551;48.524;9.056;2023-02-01T03:05:49;2.00;;;1.90;;
505;SDS011;551;48.524;9.056;2023-02-01T03:08:16;2.10;;;1.90;;
505;SDS011;551;48.524;9.056;2023-02-01T03:10:55;2.20;;;2.07;;
505;SDS011;551;48.524;9.056;2023-02-01T03:16:10;2.40;;;1.97;;
505;SDS011;551;48.524;9.056;2023-02-01T03:18:57;2.20;;;2.00;;
505;SDS011;551;48.524;9.056;2023-02-01T03:24:02;2.73;;;2.27;;
505;SDS011;551;48.524;9.056;2023-02-01T03:26:32;2.00;;;1.90;;
505;SDS011;551;48.524;9.056;2023-02-01T03:29:05;2.50;;;2.30;;
505;SDS011;551;48.524;9.056;2023-02-01T03:31:36;2.10;;;1.90;;
505;SDS011;551;48.524;9.056;2023-02-01T03:34:01;2.60;;;1.97;;
505;SDS011;551;48.524;9.056;2023-02-01T03:36:35;2.20;;;2.00;;
505;SDS011;551;48.524;9.056;2023-02-01T03:39:25;2.87;;;2.60;;
505;SDS011;551;48.524;9.056;2023-02-01T03:41:58;2.37;;;1.77;;
505;SDS011;551;48.524;9.056;2023-02-01T03:47:15;2.37;;;2.13;;
505;SDS011;551;48.524;9.056;2023-02-01T03:50:06;2.93;;;2.30;;
505;SDS011;551;48.524;9.056;2023-02-01T03:52:40;2.73;;;2.23;;
505;SDS011;551;48.524;9.056;2023-02-01T03:55:08;2.93;;;2.70;;
505;SDS011;551;48.524;9.056;2023-02-01T03:57:37;2.60;;;2.40;;
505;SDS011;551;48.524;9.056;2023-02-01T04:00:25;2.63;;;2.43;;
505;SDS011;551;48.524;9.056;2023-02-01T04:02:51;3.53;;;2.40;;
505;SDS011;551;48.524;9.056;2023-02-01T04:05:18;2.37;;;2.17;;
505;SDS011;551;48.524;9.056;2023-02-01T04:07:44;2.93;;;2.53;;
505;SDS011;551;48.524;9.056;2023-02-01T04:10:10;2.50;;;2.30;;
505;SDS011;551;48.524;9.056;2023-02-01T04:12:36;2.87;;;2.53;;
505;SDS011;551;48.524;9.056;2023-02-01T04:15:02;6.50;;;2.43;;
505;SDS011;551;48.524;9.056;2023-02-01T04:17:28;2.40;;;2.20;;
505;SDS011;551;48.524;9.056;2023-02-01T04:19:54;3.63;;;2.33;;
505;SDS011;551;48.524;9.056;2023-02-01T04:22:19;4.43;;;2.93;;
505;SDS011;551;48.524;9.056;2023-02-01T04:24:45;2.23;;;2.00;;
505;SDS011;551;48.524;9.056;2023-02-01T04:27:10;2.10;;;2.00;;
505;SDS011;551;48.524;9.056;2023-02-01T04:29:36;2.53;;;2.33;;
505;SDS011;551;48.524;9.056;2023-02-01T04:32:01;2.53;;;2.33;;
505;SDS011;551;48.524;9.056;2023-02-01T04:34:27;2.33;;;2.13;;
505;SDS011;551;48.524;9.056;2023-02-01T04:36:53;2.70;;;2.33;;
505;SDS011;551;48.524;9.056;2023-02-01T04:39:19;2.97;;;2.37;;
505;SDS011;551;48.524;9.056;2023-02-01T04:41:44;2.80;;;2.50;;
505;SDS011;551;48.524;9.056;2023-02-01T04:44:14;3.30;;;2.53;;
505;SDS011;551;48.524;9.056;2023-02-01T04:46:41;2.83;;;2.63;;
505;SDS011;551;48.524;9.056;2023-02-01T04:49:08;3.60;;;2.13;;
505;SDS011;551;48.524;9.056;2023-02-01T04:51:37;2.60;;;2.40;;
505;SDS011;551;48.524;9.056;2023-02-01T04:54:03;4.23;;;2.57;;
505;SDS011;551;48.524;9.056;2023-02-01T04:56:29;2.23;;;2.03;;
505;SDS011;551;48.524;9.056;2023-02-01T04:58:55;2.40;;;2.17;;
505;SDS011;551;48.524;9.056;2023-02-01T05:01:21;3.07;;;2.10;;
505;SDS011;551;48.524;9.056;2023-02-01T05:03:47;2.20;;;2.10;;
505;SDS011;551;48.524;9.056;2023-02-01T05:06:13;2.30;;;2.07;;
505;SDS011;551;48.524;9.056;2023-02-01T05:08:39;3.10;;;2.40;;
505;SDS011;551;48.524;9.056;2023-02-01T05:11:04;3.87;;;2.43;;
505;SDS011;551;48.524;9.056;2023-02-01T05:13:30;2.97;;;2.13;;
505;SDS011;551;48.524;9.056;2023-02-01T05:16:14;1.90;;;1.80;;
505;SDS011;551;48.524;9.056;2023-02-01T05:18:40;1.90;;;1.80;;
505;SDS011;551;48.524;9.056;2023-02-01T05:21:06;3.23;;;2.00;;
505;SDS011;551;48.524;9.056;2023-02-01T05:23:32;2.80;;;2.17;;
505;SDS011;551;48.524;9.056;2023-02-01T05:26:17;2.07;;;1.97;;
505;SDS011;551;48.524;9.056;2023-02-01T05:28:43;2.27;;;2.07;;
505;SDS011;551;48.524;9.056;2023-02-01T05:31:09;3.43;;;3.13;;
505;SDS011;551;48.524;9.056;2023-02-01T05:33:35;4.07;;;2.80;;
505;SDS011;551;48.524;9.056;2023-02-01T05:36:01;3.00;;;2.10;;
505;SDS011;551;48.524;9.056;2023-02-01T05:38:26;2.50;;;2.30;;
505;SDS011;551;48.524;9.056;2023-02-01T05:40:52;3.17;;;1.97;;
505;SDS011;551;48.524;9.056;2023-02-01T05:43:17;2.10;;;1.90;;
505;SDS011;551;48.524;9.056;2023-02-01T05:45:43;2.03;;;1.83;;
505;SDS011;551;48.524;9.056;2023-02-01T05:48:08;3.07;;;2.40;;
505;SDS011;551;48.524;9.056;2023-02-01T05:50:34;2.13;;;1.93;;
505;SDS011;551;48.524;9.056;2023-02-01T05:52:59;3.40;;;2.30;;
505;SDS011;551;48.524;9.056;2023-02-01T05:55:25;2.40;;;1.77;;
505;SDS011;551;48.524;9.056;2023-02-01T05:57:50;2.30;;;1.93;;
505;SDS011;551;48.524;9.056;2023-02-01T06:00:16;2.40;;;1.60;;
505;SDS011;551;48.524;9.056;2023-02-01T06:02:42;5.80;;;2.27;;
505;SDS011;551;48.524;9.056;2023-02-01T06:05:07;2.10;;;1.90;;
505;SDS011;551;48.524;9.056;2023-02-01T06:07:33;2.30;;;2.10;;
505;SDS011;551;48.524;9.056;2023-02-01T06:09:58;3.07;;;2.87;;
505;SDS011;551;48.524;9.056;2023-02-01T06:12:24;4.93;;;2.13;;
505;SDS011;551;48.524;9.056;2023-02-01T06:14:53;2.53;;;2.00;;
505;SDS011;551;48.524;9.056;2023-02-01T06:17:18;1.70;;;1.60;;
505;SDS011;551;48.524;9.056;2023-02-01T06:19:44;2.10;;;1.80;;
505;SDS011;551;48.524;9.056;2023-02-01T06:22:09;2.90;;;1.70;;
505;SDS011;551;48.524;9.056;2023-02-01T06:24:35;2.20;;;2.00;;
505;SDS011;551;48.524;9.056;2023-02-01T06:27:01;2.43;;;2.23;;
505;SDS011;551;48.524;9.056;2023-02-01T06:29:26;4.43;;;2.30;;
505;SDS011;551;48.524;9.056;2023-02-01T06:31:52;2.20;;;2.00;;
505;SDS011;551;48.524;9.056;2023-02-01T06:34:17;6.70;;;1.60;;
505;SDS011;551;48.524;9.056;2023-02-01T06:36:43;2.07;;;1.87;;
505;SDS011;551;48.524;9.056;2023-02-01T06:39:09;3.30;;;2.40;;
505;SDS011;551;48.524;9.056;2023-02-01T06:41:34;4.47;;;2.60;;
505;SDS011;551;48.524;9.056;2023-02-01T06:44:00;5.07;;;2.40;;
505;SDS011;551;48.524;9.056;2023-02-01T06:46:25;2.30;;;2.10;;
505;SDS011;551;48.524;9.056;2023-02-01T06:48:51;3.93;;;3.07;;
505;SDS011;551;48.524;9.056;2023-02-01T06:51:24;3.70;;;2.23;;
505;SDS011;551;48.524;9.056;2023-02-01T06:53:51;7.20;;;2.20;;
505;SDS011;551;48.524;9.056;2023-02-01T06:56:16;4.80;;;2.53;;
505;SDS011;551;48.524;9.056;2023-02-01T06:58:43;3.50;;;2.37;;
505;SDS011;551;48.524;9.056;2023-02-01T07:01:10;3.60;;;2.20;;
505;SDS011;551;48.524;9.056;2023-02-01T07:03:36;4.50;;;2.20;;
505;SDS011;551;48.524;9.056;2023-02-01T07:06:02;3.63;;;1.97;;
505;SDS011;551;48.524;9.056;2023-02-01T07:08:30;3.33;;;2.10;;
505;SDS011;551;48.524;9.056;2023-02-01T07:10:56;2.60;;;2.40;;
505;SDS011;551;48.524;9.056;2023-02-01T07:13:25;4.00;;;2.60;;
505;SDS011;551;48.524;9.056;2023-02-01T07:15:51;2.50;;;2.30;;
505;SDS011;551;48.524;9.056;2023-02-01T07:18:16;2.67;;;2.17;;
505;SDS011;551;48.524;9.056;2023-02-01T07:20:42;2.40;;;2.20;;
505;SDS011;551;48.524;9.056;2023-02-01T07:23:09;2.30;;;2.10;;
505;SDS011;551;48.524;9.056;2023-02-01T07:25:35;3.00;;;2.00;;
505;SDS011;551;48.524;9.056;2023-02-01T07:28:01;7.97;;;2.60;;
505;SDS011;551;48.524;9.056;2023-02-01T07:30:27;2.80;;;1.77;;
505;SDS011;551;48.524;9.056;2023-02-01T07:32:52;3.40;;;2.60;;
505;SDS011;551;48.524;9.056;2023-02-01T07:35:18;6.17;;;2.40;;
505;SDS011;551;48.524;9.056;2023-02-01T07:37:43;3.20;;;2.37;;
505;SDS011;551;48.524;9.056;2023-02-01T07:40:09;2.43;;;1.93;;
505;SDS011;551;48.524;9.056;2023-02-01T07:42:35;2.70;;;2.10;;
505;SDS011;551;48.524;9.056;2023-02-01T07:45:01;3.83;;;2.67;;
505;SDS011;551;48.524;9.056;2023-02-01T07:47:27;4.27;;;2.60;;
505;SDS011;551;48.524;9.056;2023-02-01T07:49:53;2.33;;;2.10;;
505;SDS011;551;48.524;9.056;2023-02-01T07:52:19;3.47;;;2.20;;
505;SDS011;551;48.524;9.056;2023-02-01T07:54:44;2.20;;;1.93;;
505;SDS011;551;48.524;9.056;2023-02-01T07:57:10;6.07;;;2.40;;
505;SDS011;551;48.524;9.056;2023-02-01T07:59:36;3.50;;;2.30;;
505;SDS011;551;48.524;9.056;2023-02-01T08:02:22;5.70;;;2.50;;
505;SDS011;551;48.524;9.056;2023-02-01T08:04:48;5.17;;;2.50;;
505;SDS011;551;48.524;9.056;2023-02-01T08:07:13;5.10;;;2.30;;
505;SDS011;551;48.524;9.056;2023-02-01T08:09:39;4.90;;;2.10;;
505;SDS011;551;48.524;9.056;2023-02-01T08:12:04;3.03;;;2.30;;
505;SDS011;551;48.524;9.056;2023-02-01T08:14:30;3.07;;;2.43;;
505;SDS011;551;48.524;9.056;2023-02-01T08:16:56;2.93;;;2.10;;
505;SDS011;551;48.524;9.056;2023-02-01T08:19:21;2.70;;;2.03;;
505;SDS011;551;48.524;9.056;2023-02-01T08:21:47;2.00;;;1.80;;
505;SDS011;551;48.524;9.056;2023-02-01T08:24:13;3.53;;;2.10;;
505;SDS011;551;48.524;9.056;2023-02-01T08:26:39;3.20;;;2.57;;
505;SDS011;551;48.524;9.056;2023-02-01T08:29:06;2.63;;;2.00;;
505;SDS011;551;48.524;9.056;2023-02-01T08:31:33;4.00;;;2.23;;
505;SDS011;551;48.524;9.056;2023-02-01T08:34:00;4.93;;;2.90;;
505;SDS011;551;48.524;9.056;2023-02-01T08:36:27;4.53;;;2.00;;
505;SDS011;551;48.524;9.056;2023-02-01T08:38:54;2.37;;;2.00;;
505;SDS011;551;48.524;9.056;2023-02-01T08:41:21;1.93;;;1.63;;
505;SDS011;551;48.524;9.056;2023-02-01T08:43:48;1.80;;;1.70;;
505;SDS011;551;48.524;9.056;2023-02-01T08:46:14;2.47;;;2.00;;
505;SDS011;551;48.524;9.056;2023-02-01T08:48:41;2.63;;;2.03;;
505;SDS011;551;48.524;9.056;2023-02-01T08:51:09;2.10;;;1.90;;
505;SDS011;551;48.524;9.056;2023-02-01T08:53:37;2.47;;;2.13;;
505;SDS011;551;48.524;9.056;2023-02-01T08:56:05;2.43;;;2.23;;
505;SDS011;551;48.524;9.056;2023-02-01T08:58:31;6.17;;;2.40;;
505;SDS011;551;48.524;9.056;2023-02-01T09:00:56;2.83;;;2.17;;
505;SDS011;551;48.524;9.056;2023-02-01T09:03:22;2.30;;;2.10;;
505;SDS011;551;48.524;9.056;2023-02-01T09:05:47;3.47;;;2.13;;
505;SDS011;551;48.524;9.056;2023-02-01T09:08:13;5.80;;;2.47;;
505;SDS011;551;48.524;9.056;2023-02-01T09:10:40;3.17;;;1.87;;
505;SDS011;551;48.524;9.056;2023-02-01T09:13:06;2.67;;;2.43;;
505;SDS011;551;48.524;9.056;2023-02-01T09:15:32;2.80;;;1.97;;
505;SDS011;551;48.524;9.056;2023-02-01T09:17:58;3.40;;;2.03;;
505;SDS011;551;48.524;9.056;2023-02-01T09:20:24;3.07;;;2.50;;
505;SDS011;551;48.524;9.056;2023-02-01T09:22:51;2.40;;;2.20;;
505;SDS011;551;48.524;9.056;2023-02-01T09:25:17;2.83;;;2.00;;
505;SDS011;551;48.524;9.056;2023-02-01T09:27:43;3.57;;;2.00;;
505;SDS011;551;48.524;9.056;2023-02-01T09:30:09;6.40;;;2.40;;
505;SDS011;551;48.524;9.056;2023-02-01T09:32:35;2.73;;;1.93;;
505;SDS011;551;48.524;9.056;2023-02-01T09:35:00;3.20;;;2.20;;
505;SDS011;551;48.524;9.056;2023-02-01T09:37:26;3.40;;;2.20;;
505;SDS011;551;48.524;9.056;2023-02-01T09:39:52;3.43;;;2.03;;
505;SDS011;551;48.524;9.056;2023-02-01T09:45:20;3.38;;;2.30;;
505;SDS011;551;48.524;9.056;2023-02-01T09:47:56;5.00;;;2.83;;
505;SDS011;551;48.524;9.056;2023-02-01T09:50:31;3.60;;;2.40;;
505;SDS011;551;48.524;9.056;2023-02-01T09:53:06;5.30;;;2.30;;
505;SDS011;551;48.524;9.056;2023-02-01T09:55:55;3.47;;;1.93;;
505;SDS011;551;48.524;9.056;2023-02-01T09:58:35;4.50;;;2.50;;
505;SDS011;551;48.524;9.056;2023-02-01T10:01:05;10.00;;;2.33;;
505;SDS011;551;48.524;9.056;2023-02-01T10:03:42;6.23;;;2.50;;
505;SDS011;551;48.524;9.056;2023-02-01T10:17:19;5.73;;;3.00;;
505;SDS011;551;48.524;9.056;2023-02-01T10:23:05;6.67;;;2.90;;
505;SDS011;551;48.524;9.056;2023-02-01T10:26:19;4.20;;;2.63;;
505;SDS011;551;48.524;9.056;2023-02-01T10:28:49;8.13;;;3.00;;
505;SDS011;551;48.524;9.056;2023-02-01T10:31:24;4.17;;;2.30;;
505;SDS011;551;48.524;9.056;2023-02-01T10:33:57;7.57;;;3.00;;
505;SDS011;551;48.524;9.056;2023-02-01T10:36:28;5.40;;;2.40;;
505;SDS011;551;48.524;9.056;2023-02-01T10:38:55;6.10;;;2.20;;
505;SDS011;551;48.524;9.056;2023-02-01T10:41:22;4.80;;;2.73;;
505;SDS011;551;48.524;9.056;2023-02-01T10:43:55;12.83;;;3.40;;
505;SDS011;551;48.524;9.056;2023-02-01T10:46:23;6.20;;;2.97;;
505;SDS011;551;48.524;9.056;2023-02-01T10:48:49;2.57;;;2.33;;
505;SDS011;551;48.524;9.056;2023-02-01T10:51:24;6.80;;;2.13;;
505;SDS011;551;48.524;9.056;2023-02-01T10:53:57;7.43;;;2.53;;
505;SDS011;551;48.524;9.056;2023-02-01T10:56:27;5.40;;;3.20;;
505;SDS011;551;48.524;9.056;2023-02-01T10:59:03;3.47;;;2.57;;
505;SDS011;551;48.524;9.056;2023-02-01T11:01:34;6.87;;;3.30;;
505;SDS011;551;48.524;9.056;2023-02-01T11:04:10;6.10;;;2.70;;
505;SDS011;551;48.524;9.056;2023-02-01T11:06:39;8.60;;;3.20;;
505;SDS011;551;48.524;9.056;2023-02-01T11:14:15;3.43;;;2.20;;
505;SDS011;551;48.524;9.056;2023-02-01T11:16:52;5.37;;;3.07;;
505;SDS011;551;48.524;9.056;2023-02-01T11:19:26;8.10;;;2.30;;
505;SDS011;551;48.524;9.056;2023-02-01T11:21:53;9.33;;;3.33;;
505;SDS011;551;48.524;9.056;2023-02-01T11:27:01;5.20;;;2.43;;
505;SDS011;551;48.524;9.056;2023-02-01T11:29:34;11.10;;;2.40;;
505;SDS011;551;48.524;9.056;2023-02-01T11:32:05;6.50;;;2.57;;
505;SDS011;551;48.524;9.056;2023-02-01T11:37:21;5.50;;;2.20;;
505;SDS011;551;48.524;9.056;2023-02-01T11:40:48;2.93;;;2.37;;
505;SDS011;551;48.524;9.056;2023-02-01T11:43:01;15.33;;;3.00;;
505;SDS011;551;48.524;9.056;2023-02-01T11:45:32;5.73;;;2.40;;
505;SDS011;551;48.524;9.056;2023-02-01T11:47:59;7.63;;;2.40;;
505;SDS011;551;48.524;9.056;2023-02-01T11:56:36;6.37;;;2.27;;
505;SDS011;551;48.524;9.056;2023-02-01T12:02:21;3.30;;;2.00;;
505;SDS011;551;48.524;9.056;2023-02-01T12:05:23;8.33;;;2.97;;
505;SDS011;551;48.524;9.056;2023-02-01T12:08:21;8.67;;;2.83;;
505;SDS011;551;48.524;9.056;2023-02-01T12:11:00;4.90;;;2.50;;
505;SDS011;551;48.524;9.056;2023-02-01T12:21:45;6.33;;;2.57;;
505;SDS011;551;48.524;9.056;2023-02-01T12:35:22;10.13;;;2.47;;
505;SDS011;551;48.524;9.056;2023-02-01T12:43:53;7.50;;;2.40;;
505;SDS011;551;48.524;9.056;2023-02-01T12:46:33;10.27;;;2.70;;
505;SDS011;551;48.524;9.056;2023-02-01T12:49:06;26.40;;;4.10;;
505;SDS011;551;48.524;9.056;2023-02-01T12:51:50;13.33;;;3.37;;
505;SDS011;551;48.524;9.056;2023-02-01T12:54:30;8.57;;;2.77;;
505;SDS011;551;48.524;9.056;2023-02-01T12:57:02;5.40;;;2.30;;
505;SDS011;551;48.524;9.056;2023-02-01T13:05:04;5.80;;;3.03;;
505;SDS011;551;48.524;9.056;2023-02-01T13:07:45;8.73;;;3.37;;
505;SDS011;551;48.524;9.056;2023-02-01T13:10:38;15.57;;;2.77;;
505;SDS011;551;48.524;9.056;2023-02-01T13:16:33;26.50;;;3.33;;
505;SDS011;551;48.524;9.056;2023-02-01T13:18:41;14.75;;;3.72;;
505;SDS011;551;48.524;9.056;2023-02-01T13:21:18;11.17;;;2.77;;
505;SDS011;551;48.524;9.056;2023-02-01T13:23:55;9.30;;;3.60;;
505;SDS011;551;48.524;9.056;2023-02-01T13:26:21;10.47;;;3.80;;
505;SDS011;551;48.524;9.056;2023-02-01T13:28:47;11.13;;;3.50;;
505;SDS011;551;48.524;9.056;2023-02-01T13:31:24;6.10;;;2.90;;
505;SDS011;551;48.524;9.056;2023-02-01T13:42:21;11.97;;;3.33;;
505;SDS011;551;48.524;9.056;2023-02-01T13:44:51;7.97;;;3.10;;
505;SDS011;551;48.524;9.056;2023-02-01T13:47:25;16.77;;;4.60;;
505;SDS011;551;48.524;9.056;2023-02-01T13:55:46;16.10;;;3.47;;
505;SDS011;551;48.524;9.056;2023-02-01T13:58:22;5.77;;;2.40;;
505;SDS011;551;48.524;9.056;2023-02-01T14:03:58;12.07;;;3.75;;
505;SDS011;551;48.524;9.056;2023-02-01T14:16:43;8.47;;;2.47;;
505;SDS011;551;48.524;9.056;2023-02-01T14:19:22;6.00;;;3.10;;
505;SDS011;551;48.524;9.056;2023-02-01T14:21:56;16.47;;;3.53;;
505;SDS011;551;48.524;9.056;2023-02-01T14:24:42;9.57;;;4.10;;
505;SDS011;551;48.524;9.056;2023-02-01T14:27:19;6.17;;;2.63;;
505;SDS011;551;48.524;9.056;2023-02-01T14:29:50;9.97;;;3.33;;
505;SDS011;551;48.524;9.056;2023-02-01T14:32:23;11.40;;;2.80;;
505;SDS011;551;48.524;9.056;2023-02-01T14:34:55;13.70;;;3.73;;
505;SDS011;551;48.524;9.056;2023-02-01T14:37:31;10.70;;;5.73;;
505;SDS011;551;48.524;9.056;2023-02-01T14:47:44;14.23;;;3.72;;
505;SDS011;551;48.524;9.056;2023-02-01T14:52:40;9.10;;;3.53;;
505;SDS011;551;48.524;9.056;2023-02-01T14:55:15;13.37;;;4.73;;
505;SDS011;551;48.524;9.056;2023-02-01T14:57:44;8.50;;;3.27;;
505;SDS011;551;48.524;9.056;2023-02-01T15:00:32;8.70;;;3.60;;
505;SDS011;551;48.524;9.056;2023-02-01T15:05:56;13.83;;;3.27;;
505;SDS011;551;48.524;9.056;2023-02-01T15:08:28;11.43;;;3.30;;
505;SDS011;551;48.524;9.056;2023-02-01T15:10:56;9.60;;;3.07;;
505;SDS011;551;48.524;9.056;2023-02-01T15:13:25;6.83;;;3.00;;
505;SDS011;551;48.524;9.056;2023-02-01T15:16:02;9.77;;;3.17;;
505;SDS011;551;48.524;9.056;2023-02-01T15:18:30;10.07;;;3.40;;
505;SDS011;551;48.524;9.056;2023-02-01T15:20:57;11.73;;;4.43;;
505;SDS011;551;48.524;9.056;2023-02-01T15:23:24;9.47;;;3.50;;
505;SDS011;551;48.524;9.056;2023-02-01T15:25:51;7.77;;;3.20;;
505;SDS011;551;48.524;9.056;2023-02-01T15:28:16;15.90;;;3.53;;
505;SDS011;551;48.524;9.056;2023-02-01T15:31:02;7.53;;;2.80;;
505;SDS011;551;48.524;9.056;2023-02-01T15:33:29;11.03;;;3.20;;
505;SDS011;551;48.524;9.056;2023-02-01T15:38:32;4.90;;;3.10;;
505;SDS011;551;48.524;9.056;2023-02-01T15:41:02;12.63;;;3.60;;
505;SDS011;551;48.524;9.056;2023-02-01T15:43:28;16.97;;;3.80;;
505;SDS011;551;48.524;9.056;2023-02-01T15:45:58;11.87;;;2.83;;
505;SDS011;551;48.524;9.056;2023-02-01T15:48:25;8.43;;;3.30;;
505;SDS011;551;48.524;9.056;2023-02-01T15:50:53;11.03;;;3.17;;
505;SDS011;551;48.524;9.056;2023-02-01T15:53:21;12.73;;;3.27;;
505;SDS011;551;48.524;9.056;2023-02-01T15:55:52;13.93;;;3.40;;
505;SDS011;551;48.524;9.056;2023-02-01T15:58:21;9.40;;;3.43;;
505;SDS011;551;48.524;9.056;2023-02-01T16:00:53;19.73;;;3.90;;
505;SDS011;551;48.524;9.056;2023-02-01T16:03:32;10.33;;;3.30;;
505;SDS011;551;48.524;9.056;2023-02-01T16:06:01;8.63;;;2.93;;
505;SDS011;551;48.524;9.056;2023-02-01T16:08:29;12.23;;;3.30;;
505;SDS011;551;48.524;9.056;2023-02-01T16:11:40;7.77;;;3.20;;
505;SDS011;551;48.524;9.056;2023-02-01T16:13:48;11.17;;;3.73;;
505;SDS011;551;48.524;9.056;2023-02-01T16:16:14;6.67;;;2.80;;
505;SDS011;551;48.524;9.056;2023-02-01T16:18:40;10.50;;;2.97;;
505;SDS011;551;48.524;9.056;2023-02-01T16:21:06;12.70;;;3.30;;
505;SDS011;551;48.524;9.056;2023-02-01T16:23:35;11.63;;;3.27;;
505;SDS011;551;48.524;9.056;2023-02-01T16:26:01;10.50;;;3.40;;
505;SDS011;551;48.524;9.056;2023-02-01T16:28:28;6.23;;;3.40;;
505;SDS011;551;48.524;9.056;2023-02-01T16:30:53;5.73;;;3.13;;
505;SDS011;551;48.524;9.056;2023-02-01T16:33:19;10.33;;;2.90;;
505;SDS011;551;48.524;9.056;2023-02-01T16:35:48;7.10;;;2.83;;
505;SDS011;551;48.524;9.056;2023-02-01T16:38:15;6.37;;;2.73;;
505;SDS011;551;48.524;9.056;2023-02-01T16:40:44;6.97;;;2.87;;
505;SDS011;551;48.524;9.056;2023-02-01T16:43:21;13.20;;;3.20;;
505;SDS011;551;48.524;9.056;2023-02-01T16:45:48;12.17;;;3.00;;
505;SDS011;551;48.524;9.056;2023-02-01T16:48:22;5.67;;;3.00;;
505;SDS011;551;48.524;9.056;2023-02-01T16:50:53;6.67;;;3.20;;
505;SDS011;551;48.524;9.056;2023-02-01T16:53:20;6.67;;;3.20;;
505;SDS011;551;48.524;9.056;2023-02-01T16:55:48;10.50;;;3.37;;
505;SDS011;551;48.524;9.056;2023-02-01T16:58:14;8.10;;;2.93;;
505;SDS011;551;48.524;9.056;2023-02-01T17:00:40;14.27;;;2.97;;
505;SDS011;551;48.524;9.056;2023-02-01T17:03:06;6.47;;;2.70;;
505;SDS011;551;48.524;9.056;2023-02-01T17:05:32;6.30;;;2.90;;
505;SDS011;551;48.524;9.056;2023-02-01T17:07:59;7.10;;;2.50;;
505;SDS011;551;48.524;9.056;2023-02-01T17:10:31;11.50;;;3.60;;
505;SDS011;551;48.524;9.056;2023-02-01T17:12:56;13.67;;;4.00;;
505;SDS011;551;48.524;9.056;2023-02-01T17:15:22;13.73;;;3.33;;
505;SDS011;551;48.524;9.056;2023-02-01T17:17:50;9.03;;;3.40;;
505;SDS011;551;48.524;9.056;2023-02-01T17:20:20;16.23;;;3.70;;
505;SDS011;551;48.524;9.056;2023-02-01T17:22:48;7.07;;;3.43;;
505;SDS011;551;48.524;9.056;2023-02-01T17:25:16;4.17;;;2.70;;
505;SDS011;551;48.524;9.056;2023-02-01T17:27:43;14.23;;;3.27;;
505;SDS011;551;48.524;9.056;2023-02-01T17:30:09;7.83;;;2.90;;
505;SDS011;551;48.524;9.056;2023-02-01T17:32:37;11.03;;;3.80;;
505;SDS011;551;48.524;9.056;2023-02-01T17:35:03;9.07;;;3.20;;
505;SDS011;551;48.524;9.056;2023-02-01T17:37:33;13.27;;;3.53;;
505;SDS011;551;48.524;9.056;2023-02-01T17:40:00;5.70;;;2.93;;
505;SDS011;551;48.524;9.056;2023-02-01T17:42:27;3.93;;;2.20;;
505;SDS011;551;48.524;9.056;2023-02-01T17:47:45;19.57;;;3.20;;
505;SDS011;551;48.524;9.056;2023-02-01T17:50:11;11.30;;;3.77;;
505;SDS011;551;48.524;9.056;2023-02-01T17:52:37;9.83;;;3.87;;
505;SDS011;551;48.524;9.056;2023-02-01T17:55:37;9.30;;;3.77;;
505;SDS011;551;48.524;9.056;2023-02-01T17:57:59;7.20;;;2.83;;
505;SDS011;551;48.524;9.056;2023-02-01T18:00:24;14.20;;;5.10;;
505;SDS011;551;48.524;9.056;2023-02-01T18:02:51;5.60;;;3.07;;
505;SDS011;551;48.524;9.056;2023-02-01T18:05:20;9.57;;;3.70;;
505;SDS011;551;48.524;9.056;2023-02-01T18:07:53;10.63;;;3.20;;
505;SDS011;551;48.524;9.056;2023-02-01T18:10:19;18.17;;;4.23;;
505;SDS011;551;48.524;9.056;2023-02-01T18:12:44;5.97;;;3.50;;
505;SDS011;551;48.524;9.056;2023-02-01T18:15:22;11.00;;;3.07;;
505;SDS011;551;48.524;9.056;2023-02-01T18:17:49;8.07;;;3.20;;
505;SDS011;551;48.524;9.056;2023-02-01T18:20:21;11.00;;;3.50;;